PGT42MY EGKK-EDDF
Flight info
| Callsign | PGT42MY |
|---|---|
| Flight time | N/A |
| Altitude | 35000 |
| Route | DVR UL9 KONAN UL607 KOK DCT REMBA UL607 SPI T180 NIVNU T847 IMCOM |
| Aircraft | A21N/M-SDE2E3FGHIJ1RWXYZ/LB1 |
Departure
| Time | 2026-05-07 20:20 |
|---|---|
| Airport | London Gatwick Airport (EGKK) |
Arrival
| Time | N/A |
|---|---|
| Airport | Frankfurt Main Airport (EDDF) |
| Time | Latitude | Longitude | Altitude | Speed | Heading |
|---|---|---|---|---|---|
| 2026-05-07 18:57 | 51.15485 | -0.16893 | 208 ft | 0 kts | 349° |
| 2026-05-07 19:54 | 51.15482 | -0.16892 | 210 ft | 0 kts | 348° |
| 2026-05-07 19:54 | 51.15463 | -0.16885 | 216 ft | 3 kts | 340° |
| 2026-05-07 19:55 | 51.15446 | -0.16867 | 212 ft | 3 kts | 276° |
| 2026-05-07 19:55 | 51.15448 | -0.16835 | 216 ft | 0 kts | 258° |
| 2026-05-07 19:57 | 51.15446 | -0.16852 | 217 ft | 4 kts | 258° |
| 2026-05-07 19:58 | 51.15439 | -0.16909 | 211 ft | 7 kts | 258° |
| 2026-05-07 19:58 | 51.15426 | -0.16999 | 212 ft | 10 kts | 257° |
| 2026-05-07 19:58 | 51.15406 | -0.17124 | 214 ft | 13 kts | 249° |
| 2026-05-07 19:58 | 51.15373 | -0.17268 | 215 ft | 15 kts | 254° |
| 2026-05-07 19:59 | 51.15331 | -0.17367 | 220 ft | 1 kts | 232° |
| 2026-05-07 19:59 | 51.15310 | -0.17405 | 214 ft | 8 kts | 240° |
| 2026-05-07 19:59 | 51.15292 | -0.17517 | 211 ft | 13 kts | 257° |
| 2026-05-07 19:59 | 51.15269 | -0.17689 | 212 ft | 18 kts | 258° |
| 2026-05-07 20:00 | 51.15250 | -0.17828 | 212 ft | 19 kts | 257° |
| 2026-05-07 20:00 | 51.15234 | -0.17940 | 215 ft | 0 kts | 258° |
| 2026-05-07 20:00 | 51.15232 | -0.17955 | 219 ft | 3 kts | 258° |
| 2026-05-07 20:00 | 51.15231 | -0.17963 | 220 ft | 1 kts | 257° |
| 2026-05-07 20:01 | 51.15231 | -0.17965 | 220 ft | 0 kts | 257° |
| 2026-05-07 20:01 | 51.15226 | -0.17999 | 218 ft | 8 kts | 258° |
| 2026-05-07 20:01 | 51.15211 | -0.18114 | 211 ft | 12 kts | 258° |
| 2026-05-07 20:01 | 51.15189 | -0.18277 | 213 ft | 21 kts | 258° |
| 2026-05-07 20:02 | 51.15155 | -0.18556 | 215 ft | 28 kts | 258° |
| 2026-05-07 20:02 | 51.15112 | -0.18867 | 217 ft | 30 kts | 257° |
| 2026-05-07 20:02 | 51.15074 | -0.19150 | 213 ft | 23 kts | 258° |
| 2026-05-07 20:02 | 51.15037 | -0.19412 | 213 ft | 25 kts | 257° |
| 2026-05-07 20:03 | 51.14999 | -0.19698 | 215 ft | 27 kts | 257° |
| 2026-05-07 20:03 | 51.14955 | -0.20005 | 217 ft | 29 kts | 257° |
| 2026-05-07 20:03 | 51.14914 | -0.20312 | 214 ft | 27 kts | 258° |
| 2026-05-07 20:03 | 51.14879 | -0.20563 | 215 ft | 22 kts | 257° |
| 2026-05-07 20:04 | 51.14860 | -0.20701 | 207 ft | 9 kts | 258° |
| 2026-05-07 20:04 | 51.14845 | -0.20810 | 207 ft | 11 kts | 257° |
| 2026-05-07 20:04 | 51.14826 | -0.20949 | 216 ft | 14 kts | 257° |
| 2026-05-07 20:04 | 51.14813 | -0.21040 | 217 ft | 1 kts | 258° |
| 2026-05-07 20:05 | 51.14805 | -0.21092 | 209 ft | 9 kts | 256° |
| 2026-05-07 20:05 | 51.14783 | -0.21195 | 211 ft | 5 kts | 254° |
| 2026-05-07 20:05 | 51.14781 | -0.21204 | 209 ft | 0 kts | 255° |
| 2026-05-07 20:08 | 51.14778 | -0.21227 | 209 ft | 4 kts | 257° |
| 2026-05-07 20:08 | 51.14770 | -0.21281 | 207 ft | 6 kts | 257° |
| 2026-05-07 20:08 | 51.14766 | -0.21314 | 210 ft | 0 kts | 258° |
| 2026-05-07 20:11 | 51.14764 | -0.21324 | 215 ft | 4 kts | 257° |
| 2026-05-07 20:11 | 51.14747 | -0.21384 | 212 ft | 8 kts | 223° |
| 2026-05-07 20:11 | 51.14703 | -0.21394 | 207 ft | 0 kts | 149° |
| 2026-05-07 20:12 | 51.14699 | -0.21394 | 207 ft | 0 kts | 171° |
| 2026-05-07 20:16 | 51.14698 | -0.21393 | 207 ft | 2 kts | 171° |
| 2026-05-07 20:16 | 51.14672 | -0.21371 | 208 ft | 7 kts | 142° |
| 2026-05-07 20:17 | 51.14626 | -0.21328 | 208 ft | 1 kts | 166° |
| 2026-05-07 20:18 | 51.14618 | -0.21325 | 207 ft | 0 kts | 167° |
| 2026-05-07 20:19 | 51.14608 | -0.21322 | 210 ft | 4 kts | 166° |
| 2026-05-07 20:19 | 51.14550 | -0.21278 | 216 ft | 14 kts | 141° |
| 2026-05-07 20:19 | 51.14521 | -0.21132 | 210 ft | 11 kts | 82° |
| 2026-05-07 20:20 | 51.14524 | -0.21110 | 213 ft | 5 kts | 79° |
| 2026-05-07 20:20 | 51.14584 | -0.20656 | 220 ft | 88 kts | 78° |
| 2026-05-07 20:20 | 51.14777 | -0.19269 | 228 ft | 161 kts | 77° |
| 2026-05-07 20:20 | 51.15015 | -0.17530 | 1047 ft | 164 kts | 78° |
| 2026-05-07 20:21 | 51.15263 | -0.15629 | 1796 ft | 186 kts | 80° |
| 2026-05-07 20:21 | 51.15542 | -0.13528 | 2595 ft | 202 kts | 79° |
| 2026-05-07 20:21 | 51.15846 | -0.11237 | 3368 ft | 224 kts | 79° |
| 2026-05-07 20:21 | 51.16185 | -0.08677 | 4089 ft | 246 kts | 79° |
| 2026-05-07 20:22 | 51.16546 | -0.05936 | 4991 ft | 259 kts | 78° |
| 2026-05-07 20:22 | 51.16921 | -0.03091 | 5606 ft | 265 kts | 78° |
| 2026-05-07 20:22 | 51.17188 | -0.00180 | 5879 ft | 266 kts | 88° |
| 2026-05-07 20:22 | 51.17189 | 0.02777 | 5883 ft | 267 kts | 91° |
| 2026-05-07 20:23 | 51.17152 | 0.05748 | 5879 ft | 268 kts | 91° |
| 2026-05-07 20:23 | 51.17111 | 0.08709 | 5872 ft | 268 kts | 92° |
| 2026-05-07 20:23 | 51.17074 | 0.11640 | 5857 ft | 267 kts | 91° |
| 2026-05-07 20:23 | 51.17041 | 0.14490 | 5849 ft | 268 kts | 91° |
| 2026-05-07 20:24 | 51.17012 | 0.17428 | 5990 ft | 267 kts | 91° |
| 2026-05-07 20:24 | 51.16981 | 0.20413 | 6900 ft | 273 kts | 91° |
| 2026-05-07 20:24 | 51.16949 | 0.23478 | 7902 ft | 279 kts | 91° |
| 2026-05-07 20:24 | 51.16924 | 0.26594 | 8936 ft | 285 kts | 91° |
| 2026-05-07 20:25 | 51.16899 | 0.29796 | 9939 ft | 292 kts | 91° |
| 2026-05-07 20:25 | 51.16870 | 0.33129 | 10572 ft | 313 kts | 91° |
| 2026-05-07 20:25 | 51.16856 | 0.36752 | 11001 ft | 339 kts | 91° |
| 2026-05-07 20:25 | 51.16853 | 0.40640 | 11393 ft | 363 kts | 91° |
| 2026-05-07 20:26 | 51.16850 | 0.44785 | 11798 ft | 384 kts | 91° |
| 2026-05-07 20:26 | 51.16842 | 0.49116 | 12371 ft | 395 kts | 91° |
| 2026-05-07 20:26 | 51.16824 | 0.53517 | 13164 ft | 399 kts | 91° |
| 2026-05-07 20:26 | 51.16807 | 0.57953 | 13911 ft | 403 kts | 91° |
| 2026-05-07 20:27 | 51.16786 | 0.62444 | 14592 ft | 407 kts | 91° |
| 2026-05-07 20:27 | 51.16770 | 0.66977 | 15243 ft | 411 kts | 91° |
| 2026-05-07 20:27 | 51.16750 | 0.71561 | 15871 ft | 416 kts | 91° |
| 2026-05-07 20:27 | 51.16725 | 0.76194 | 16509 ft | 420 kts | 91° |
| 2026-05-07 20:28 | 51.16692 | 0.80881 | 17122 ft | 425 kts | 92° |
| 2026-05-07 20:28 | 51.16654 | 0.85594 | 17866 ft | 424 kts | 92° |
| 2026-05-07 20:28 | 51.16621 | 0.90250 | 18880 ft | 416 kts | 91° |
| 2026-05-07 20:28 | 51.16595 | 0.94823 | 19925 ft | 411 kts | 92° |
| 2026-05-07 20:29 | 51.16564 | 0.99375 | 20684 ft | 412 kts | 91° |
| 2026-05-07 20:29 | 51.16527 | 1.03972 | 21346 ft | 416 kts | 92° |
| 2026-05-07 20:29 | 51.16493 | 1.08609 | 21986 ft | 421 kts | 91° |
| 2026-05-07 20:29 | 51.16457 | 1.13298 | 22630 ft | 425 kts | 92° |
| 2026-05-07 20:30 | 51.16409 | 1.18020 | 23280 ft | 429 kts | 92° |
| 2026-05-07 20:30 | 51.16362 | 1.22795 | 23876 ft | 433 kts | 92° |
| 2026-05-07 20:30 | 51.16325 | 1.27624 | 24426 ft | 437 kts | 92° |
| 2026-05-07 20:30 | 51.16283 | 1.32483 | 24976 ft | 441 kts | 92° |
| 2026-05-07 20:31 | 51.16180 | 1.37386 | 25481 ft | 445 kts | 95° |
| 2026-05-07 20:31 | 51.15944 | 1.42344 | 25902 ft | 450 kts | 96° |
| 2026-05-07 20:31 | 51.15692 | 1.47286 | 26699 ft | 446 kts | 96° |
| 2026-05-07 20:31 | 51.15445 | 1.52185 | 27546 ft | 441 kts | 96° |
| 2026-05-07 20:32 | 51.15202 | 1.57088 | 28004 ft | 447 kts | 96° |
| 2026-05-07 20:32 | 51.14957 | 1.62064 | 28344 ft | 454 kts | 96° |
| 2026-05-07 20:32 | 51.14707 | 1.67103 | 28649 ft | 461 kts | 96° |
| 2026-05-07 20:32 | 51.14459 | 1.72174 | 28943 ft | 468 kts | 96° |
| 2026-05-07 20:33 | 51.14197 | 1.77378 | 29117 ft | 471 kts | 96° |
| 2026-05-07 20:33 | 51.13665 | 1.87794 | 29121 ft | 471 kts | 96° |
| 2026-05-07 20:33 | 51.13398 | 1.92973 | 29391 ft | 471 kts | 96° |
| 2026-05-07 20:34 | 51.13125 | 1.98177 | 29760 ft | 475 kts | 96° |
| 2026-05-07 20:34 | 51.12877 | 2.02907 | 30252 ft | 474 kts | 96° |
| 2026-05-07 20:34 | 51.12616 | 2.07984 | 30742 ft | 473 kts | 96° |
| 2026-05-07 20:34 | 51.11778 | 2.24192 | 32244 ft | 471 kts | 96° |
| 2026-05-07 20:35 | 51.10501 | 2.47214 | 32688 ft | 480 kts | 96° |
| 2026-05-07 20:35 | 51.10188 | 2.52177 | 34887 ft | 396 kts | 97° |
| 2026-05-07 20:35 | 51.09909 | 2.56636 | 35579 ft | 411 kts | 97° |
| 2026-05-07 20:35 | 51.09647 | 2.61205 | 35183 ft | 423 kts | 96° |
| 2026-05-07 20:36 | 51.09335 | 2.65956 | 34925 ft | 438 kts | 102° |
| 2026-05-07 20:36 | 51.07652 | 2.75420 | 35038 ft | 453 kts | 109° |
| 2026-05-07 20:37 | 51.05820 | 2.85120 | 35103 ft | 466 kts | 108° |
| 2026-05-07 20:37 | 51.04924 | 2.90075 | 34682 ft | 469 kts | 106° |
| 2026-05-07 20:37 | 51.04072 | 2.95006 | 35043 ft | 463 kts | 107° |
| 2026-05-07 20:37 | 51.03239 | 2.99730 | 36278 ft | 398 kts | 107° |
| 2026-05-07 20:38 | 51.02549 | 3.03866 | 36179 ft | 401 kts | 107° |
| 2026-05-07 20:38 | 51.01014 | 3.12644 | 35708 ft | 429 kts | 110° |
| 2026-05-07 20:38 | 51.00057 | 3.17259 | 35271 ft | 449 kts | 110° |
| 2026-05-07 20:39 | 50.99099 | 3.22013 | 35425 ft | 453 kts | 109° |
| 2026-05-07 20:39 | 50.98185 | 3.26771 | 36048 ft | 445 kts | 108° |
| 2026-05-07 20:39 | 50.97311 | 3.31429 | 36677 ft | 437 kts | 108° |
| 2026-05-07 20:39 | 50.92730 | 3.56053 | 37278 ft | 462 kts | 108° |
| 2026-05-07 20:40 | 50.89988 | 3.70485 | 37138 ft | 477 kts | 108° |
| 2026-05-07 20:40 | 50.86123 | 3.90604 | 37084 ft | 478 kts | 109° |
| 2026-05-07 20:41 | 50.82227 | 4.10700 | 37100 ft | 477 kts | 108° |
| 2026-05-07 20:41 | 50.78472 | 4.29986 | 37102 ft | 477 kts | 109° |
| 2026-05-07 20:42 | 50.72517 | 4.60070 | 37104 ft | 477 kts | 109° |
| 2026-05-07 20:42 | 50.57214 | 5.34985 | 37141 ft | 477 kts | 110° |
| 2026-05-07 20:43 | 50.54730 | 5.46873 | 37098 ft | 478 kts | 110° |
| 2026-05-07 20:43 | 50.52643 | 5.56788 | 37084 ft | 478 kts | 110° |
| 2026-05-07 20:44 | 50.50647 | 5.66750 | 37083 ft | 479 kts | 108° |
| 2026-05-07 20:44 | 50.48760 | 5.76782 | 37084 ft | 479 kts | 108° |
| 2026-05-07 20:45 | 50.44871 | 5.97446 | 37087 ft | 476 kts | 108° |
| 2026-05-07 20:45 | 50.43951 | 6.02368 | 36809 ft | 467 kts | 108° |
| 2026-05-07 20:45 | 50.43022 | 6.07287 | 35680 ft | 475 kts | 108° |
| 2026-05-07 20:45 | 50.42070 | 6.12260 | 34742 ft | 478 kts | 108° |
| 2026-05-07 20:46 | 50.41111 | 6.17262 | 33853 ft | 478 kts | 108° |
| 2026-05-07 20:46 | 50.40170 | 6.22189 | 32851 ft | 478 kts | 108° |
| 2026-05-07 20:46 | 50.39215 | 6.27187 | 31823 ft | 479 kts | 108° |
| 2026-05-07 20:46 | 50.38253 | 6.32195 | 30829 ft | 480 kts | 108° |
| 2026-05-07 20:47 | 50.37289 | 6.37179 | 30058 ft | 475 kts | 108° |
| 2026-05-07 20:47 | 50.36453 | 6.42147 | 29287 ft | 469 kts | 102° |
| 2026-05-07 20:47 | 50.36036 | 6.47177 | 28580 ft | 462 kts | 96° |
| 2026-05-07 20:47 | 50.35740 | 6.52146 | 27924 ft | 455 kts | 96° |
| 2026-05-07 20:48 | 50.35432 | 6.57233 | 27312 ft | 479 kts | 96° |
| 2026-05-07 20:48 | 50.35094 | 6.62430 | 26717 ft | 480 kts | 96° |
| 2026-05-07 20:48 | 50.34545 | 6.67558 | 26112 ft | 476 kts | 107° |
| 2026-05-07 20:48 | 50.33456 | 6.72535 | 25555 ft | 487 kts | 111° |
| 2026-05-07 20:49 | 50.32275 | 6.77482 | 24994 ft | 484 kts | 111° |
| 2026-05-07 20:49 | 50.31118 | 6.82418 | 24438 ft | 480 kts | 110° |
| 2026-05-07 20:49 | 50.29999 | 6.87310 | 23905 ft | 477 kts | 110° |
| 2026-05-07 20:49 | 50.28903 | 6.92178 | 23317 ft | 473 kts | 110° |
| 2026-05-07 20:50 | 50.27802 | 6.97048 | 22700 ft | 479 kts | 110° |
| 2026-05-07 20:50 | 50.26684 | 7.01952 | 22089 ft | 476 kts | 110° |
| 2026-05-07 20:50 | 50.25582 | 7.06811 | 21487 ft | 472 kts | 110° |
| 2026-05-07 20:50 | 50.24492 | 7.11607 | 20902 ft | 468 kts | 110° |
| 2026-05-07 20:51 | 50.23408 | 7.16377 | 20319 ft | 464 kts | 110° |
| 2026-05-07 20:51 | 50.22320 | 7.21100 | 19745 ft | 460 kts | 110° |
| 2026-05-07 20:51 | 50.21246 | 7.25779 | 19198 ft | 456 kts | 110° |
| 2026-05-07 20:51 | 50.20182 | 7.30418 | 18656 ft | 452 kts | 110° |
| 2026-05-07 20:52 | 50.19128 | 7.35009 | 18084 ft | 448 kts | 110° |
| 2026-05-07 20:52 | 50.18055 | 7.39561 | 17462 ft | 445 kts | 111° |
| 2026-05-07 20:52 | 50.16976 | 7.44068 | 16863 ft | 441 kts | 111° |
| 2026-05-07 20:52 | 50.15905 | 7.48529 | 16278 ft | 436 kts | 111° |
| 2026-05-07 20:53 | 50.14861 | 7.52880 | 15702 ft | 422 kts | 111° |
| 2026-05-07 20:53 | 50.13845 | 7.57108 | 15145 ft | 410 kts | 111° |
| 2026-05-07 20:53 | 50.12771 | 7.61150 | 14557 ft | 395 kts | 120° |
| 2026-05-07 20:53 | 50.11190 | 7.64484 | 13971 ft | 373 kts | 136° |
| 2026-05-07 20:54 | 50.09241 | 7.66904 | 13360 ft | 355 kts | 149° |
| 2026-05-07 20:54 | 50.07156 | 7.68821 | 12768 ft | 341 kts | 152° |
| 2026-05-07 20:54 | 50.05131 | 7.70616 | 12182 ft | 330 kts | 152° |
| 2026-05-07 20:54 | 50.03171 | 7.72378 | 11598 ft | 321 kts | 151° |
| 2026-05-07 20:55 | 50.01170 | 7.74200 | 11036 ft | 351 kts | 150° |
| 2026-05-07 20:55 | 49.99093 | 7.76109 | 10137 ft | 346 kts | 150° |
| 2026-05-07 20:55 | 49.97713 | 7.77384 | 9277 ft | 349 kts | 150° |
| 2026-05-07 20:55 | 49.95568 | 7.79367 | 7884 ft | 360 kts | 150° |
| 2026-05-07 20:56 | 49.93415 | 7.81357 | 6758 ft | 357 kts | 150° |
| 2026-05-07 20:56 | 49.91413 | 7.83418 | 5968 ft | 344 kts | 139° |
| 2026-05-07 20:56 | 49.89987 | 7.86225 | 5507 ft | 322 kts | 115° |
| 2026-05-07 20:56 | 49.89439 | 7.89428 | 5267 ft | 295 kts | 92° |
| 2026-05-07 20:57 | 49.89659 | 7.92431 | 5129 ft | 271 kts | 72° |
| 2026-05-07 20:57 | 49.90311 | 7.95109 | 5080 ft | 258 kts | 66° |
| 2026-05-07 20:57 | 49.90980 | 7.97603 | 5039 ft | 244 kts | 67° |
| 2026-05-07 20:57 | 49.91615 | 8.00020 | 5006 ft | 254 kts | 67° |
| 2026-05-07 20:58 | 49.92291 | 8.02668 | 5035 ft | 268 kts | 68° |
| 2026-05-07 20:58 | 49.92952 | 8.05316 | 5014 ft | 256 kts | 68° |
| 2026-05-07 20:58 | 49.93570 | 8.07818 | 5006 ft | 240 kts | 68° |
| 2026-05-07 20:58 | 49.94177 | 8.10157 | 4994 ft | 226 kts | 66° |
| 2026-05-07 20:59 | 49.94743 | 8.12362 | 4989 ft | 218 kts | 68° |
| 2026-05-07 20:59 | 49.95279 | 8.14558 | 4950 ft | 218 kts | 68° |
| 2026-05-07 20:59 | 49.95808 | 8.16760 | 4764 ft | 216 kts | 69° |
| 2026-05-07 20:59 | 49.96327 | 8.18920 | 4511 ft | 208 kts | 69° |